sensor_id;sensor_type;location;lat;lon;timestamp;P1;durP1;ratioP1;P2;durP2;ratioP2
20709;SDS011;10516;51.518;9.864;2023-06-26T00:01:29;8.77;;;6.90;;
20709;SDS011;10516;51.518;9.864;2023-06-26T00:03:56;7.70;;;6.90;;
20709;SDS011;10516;51.518;9.864;2023-06-26T00:06:21;8.80;;;7.55;;
20709;SDS011;10516;51.518;9.864;2023-06-26T00:08:51;8.95;;;6.88;;
20709;SDS011;10516;51.518;9.864;2023-06-26T00:11:20;6.85;;;6.15;;
20709;SDS011;10516;51.518;9.864;2023-06-26T00:13:46;11.32;;;6.95;;
20709;SDS011;10516;51.518;9.864;2023-06-26T00:16:11;8.43;;;6.95;;
20709;SDS011;10516;51.518;9.864;2023-06-26T00:18:37;9.95;;;6.75;;
20709;SDS011;10516;51.518;9.864;2023-06-26T00:21:02;8.27;;;6.95;;
20709;SDS011;10516;51.518;9.864;2023-06-26T00:23:27;12.52;;;7.25;;
20709;SDS011;10516;51.518;9.864;2023-06-26T00:25:55;8.77;;;7.22;;
20709;SDS011;10516;51.518;9.864;2023-06-26T00:28:21;8.60;;;6.80;;
20709;SDS011;10516;51.518;9.864;2023-06-26T00:30:46;9.77;;;7.60;;
20709;SDS011;10516;51.518;9.864;2023-06-26T00:33:11;8.95;;;6.82;;
20709;SDS011;10516;51.518;9.864;2023-06-26T00:35:37;7.72;;;6.97;;
20709;SDS011;10516;51.518;9.864;2023-06-26T00:38:02;13.05;;;7.43;;
20709;SDS011;10516;51.518;9.864;2023-06-26T00:40:27;8.38;;;7.22;;
20709;SDS011;10516;51.518;9.864;2023-06-26T00:42:53;7.95;;;6.70;;
20709;SDS011;10516;51.518;9.864;2023-06-26T00:45:19;7.80;;;6.95;;
20709;SDS011;10516;51.518;9.864;2023-06-26T00:47:44;11.25;;;7.80;;
20709;SDS011;10516;51.518;9.864;2023-06-26T00:50:10;11.07;;;6.95;;
20709;SDS011;10516;51.518;9.864;2023-06-26T00:52:35;7.20;;;6.32;;
20709;SDS011;10516;51.518;9.864;2023-06-26T00:55:02;13.75;;;7.15;;
20709;SDS011;10516;51.518;9.864;2023-06-26T00:57:27;8.27;;;6.97;;
20709;SDS011;10516;51.518;9.864;2023-06-26T00:59:53;9.27;;;6.47;;
20709;SDS011;10516;51.518;9.864;2023-06-26T01:02:18;7.88;;;6.57;;
20709;SDS011;10516;51.518;9.864;2023-06-26T01:04:48;8.70;;;7.32;;
20709;SDS011;10516;51.518;9.864;2023-06-26T01:07:15;9.20;;;7.28;;
20709;SDS011;10516;51.518;9.864;2023-06-26T01:09:43;9.52;;;6.78;;
20709;SDS011;10516;51.518;9.864;2023-06-26T01:12:11;7.70;;;6.93;;
20709;SDS011;10516;51.518;9.864;2023-06-26T01:14:36;6.90;;;6.20;;
20709;SDS011;10516;51.518;9.864;2023-06-26T01:17:02;8.52;;;6.57;;
20709;SDS011;10516;51.518;9.864;2023-06-26T01:19:28;11.25;;;6.63;;
20709;SDS011;10516;51.518;9.864;2023-06-26T01:22:00;8.05;;;6.68;;
20709;SDS011;10516;51.518;9.864;2023-06-26T01:24:30;8.65;;;6.53;;
20709;SDS011;10516;51.518;9.864;2023-06-26T01:26:58;8.10;;;6.43;;
20709;SDS011;10516;51.518;9.864;2023-06-26T01:29:25;9.38;;;7.25;;
20709;SDS011;10516;51.518;9.864;2023-06-26T01:31:52;12.40;;;6.15;;
20709;SDS011;10516;51.518;9.864;2023-06-26T01:34:18;9.48;;;6.57;;
20709;SDS011;10516;51.518;9.864;2023-06-26T01:36:44;8.90;;;7.15;;
20709;SDS011;10516;51.518;9.864;2023-06-26T01:39:18;7.65;;;6.68;;
20709;SDS011;10516;51.518;9.864;2023-06-26T01:41:44;8.02;;;6.00;;
20709;SDS011;10516;51.518;9.864;2023-06-26T01:46:40;7.72;;;6.50;;
20709;SDS011;10516;51.518;9.864;2023-06-26T01:49:35;7.95;;;6.38;;
20709;SDS011;10516;51.518;9.864;2023-06-26T01:54:42;8.88;;;6.63;;
20709;SDS011;10516;51.518;9.864;2023-06-26T01:57:31;7.75;;;6.85;;
20709;SDS011;10516;51.518;9.864;2023-06-26T02:00:00;8.75;;;7.22;;
20709;SDS011;10516;51.518;9.864;2023-06-26T02:02:27;9.48;;;6.97;;
20709;SDS011;10516;51.518;9.864;2023-06-26T02:04:54;9.55;;;6.68;;
20709;SDS011;10516;51.518;9.864;2023-06-26T02:07:19;9.18;;;6.60;;
20709;SDS011;10516;51.518;9.864;2023-06-26T02:09:44;7.80;;;6.90;;
20709;SDS011;10516;51.518;9.864;2023-06-26T02:12:10;8.15;;;6.68;;
20709;SDS011;10516;51.518;9.864;2023-06-26T02:14:36;10.95;;;6.80;;
20709;SDS011;10516;51.518;9.864;2023-06-26T02:17:01;8.50;;;7.45;;
20709;SDS011;10516;51.518;9.864;2023-06-26T02:19:27;7.80;;;6.82;;
20709;SDS011;10516;51.518;9.864;2023-06-26T02:21:52;12.05;;;7.22;;
20709;SDS011;10516;51.518;9.864;2023-06-26T02:24:18;11.88;;;6.70;;
20709;SDS011;10516;51.518;9.864;2023-06-26T02:26:44;14.35;;;7.07;;
20709;SDS011;10516;51.518;9.864;2023-06-26T02:29:09;7.95;;;6.72;;
20709;SDS011;10516;51.518;9.864;2023-06-26T02:31:35;10.82;;;7.50;;
20709;SDS011;10516;51.518;9.864;2023-06-26T02:34:00;9.95;;;6.97;;
20709;SDS011;10516;51.518;9.864;2023-06-26T02:36:25;8.65;;;6.63;;
20709;SDS011;10516;51.518;9.864;2023-06-26T02:38:51;11.13;;;6.20;;
20709;SDS011;10516;51.518;9.864;2023-06-26T02:41:19;7.35;;;6.53;;
20709;SDS011;10516;51.518;9.864;2023-06-26T02:43:44;10.70;;;7.30;;
20709;SDS011;10516;51.518;9.864;2023-06-26T02:46:10;9.13;;;6.30;;
20709;SDS011;10516;51.518;9.864;2023-06-26T02:48:35;9.65;;;7.18;;
20709;SDS011;10516;51.518;9.864;2023-06-26T02:51:00;9.18;;;7.90;;
20709;SDS011;10516;51.518;9.864;2023-06-26T02:53:26;9.25;;;7.40;;
20709;SDS011;10516;51.518;9.864;2023-06-26T02:55:51;9.15;;;7.32;;
20709;SDS011;10516;51.518;9.864;2023-06-26T02:58:16;10.88;;;6.70;;
20709;SDS011;10516;51.518;9.864;2023-06-26T03:00:42;10.27;;;7.68;;
20709;SDS011;10516;51.518;9.864;2023-06-26T03:03:08;7.95;;;7.15;;
20709;SDS011;10516;51.518;9.864;2023-06-26T03:05:34;8.05;;;7.22;;
20709;SDS011;10516;51.518;9.864;2023-06-26T03:07:59;11.65;;;7.50;;
20709;SDS011;10516;51.518;9.864;2023-06-26T03:10:25;8.40;;;6.82;;
20709;SDS011;10516;51.518;9.864;2023-06-26T03:12:50;8.40;;;6.75;;
20709;SDS011;10516;51.518;9.864;2023-06-26T03:15:15;8.43;;;7.28;;
20709;SDS011;10516;51.518;9.864;2023-06-26T03:17:41;8.63;;;6.88;;
20709;SDS011;10516;51.518;9.864;2023-06-26T03:20:06;9.95;;;6.60;;
20709;SDS011;10516;51.518;9.864;2023-06-26T03:22:33;9.00;;;7.03;;
20709;SDS011;10516;51.518;9.864;2023-06-26T03:24:58;9.48;;;6.85;;
20709;SDS011;10516;51.518;9.864;2023-06-26T03:27:24;11.52;;;7.10;;
20709;SDS011;10516;51.518;9.864;2023-06-26T03:29:51;6.78;;;6.05;;
20709;SDS011;10516;51.518;9.864;2023-06-26T03:32:17;10.75;;;7.40;;
20709;SDS011;10516;51.518;9.864;2023-06-26T03:34:42;9.93;;;6.65;;
20709;SDS011;10516;51.518;9.864;2023-06-26T03:37:08;8.43;;;7.05;;
20709;SDS011;10516;51.518;9.864;2023-06-26T03:39:33;9.15;;;6.85;;
20709;SDS011;10516;51.518;9.864;2023-06-26T03:41:58;9.57;;;6.43;;
20709;SDS011;10516;51.518;9.864;2023-06-26T03:44:26;7.35;;;6.50;;
20709;SDS011;10516;51.518;9.864;2023-06-26T03:46:52;10.32;;;6.50;;
20709;SDS011;10516;51.518;9.864;2023-06-26T03:49:17;7.88;;;6.88;;
20709;SDS011;10516;51.518;9.864;2023-06-26T03:51:43;10.10;;;6.30;;
20709;SDS011;10516;51.518;9.864;2023-06-26T03:54:08;9.02;;;7.13;;
20709;SDS011;10516;51.518;9.864;2023-06-26T03:56:34;7.28;;;6.03;;
20709;SDS011;10516;51.518;9.864;2023-06-26T03:58:59;7.85;;;6.72;;
20709;SDS011;10516;51.518;9.864;2023-06-26T04:01:25;8.88;;;6.45;;
20709;SDS011;10516;51.518;9.864;2023-06-26T04:03:50;9.70;;;6.65;;
20709;SDS011;10516;51.518;9.864;2023-06-26T04:06:16;10.07;;;6.47;;
20709;SDS011;10516;51.518;9.864;2023-06-26T04:08:41;9.68;;;6.35;;
20709;SDS011;10516;51.518;9.864;2023-06-26T04:11:06;9.43;;;6.43;;
20709;SDS011;10516;51.518;9.864;2023-06-26T04:13:32;10.23;;;6.90;;
20709;SDS011;10516;51.518;9.864;2023-06-26T04:15:57;8.98;;;7.28;;
20709;SDS011;10516;51.518;9.864;2023-06-26T04:18:23;7.35;;;6.57;;
20709;SDS011;10516;51.518;9.864;2023-06-26T04:21:04;10.20;;;7.00;;
20709;SDS011;10516;51.518;9.864;2023-06-26T04:23:32;8.07;;;6.68;;
20709;SDS011;10516;51.518;9.864;2023-06-26T04:25:59;9.30;;;6.45;;
20709;SDS011;10516;51.518;9.864;2023-06-26T04:28:24;8.65;;;6.20;;
20709;SDS011;10516;51.518;9.864;2023-06-26T04:30:50;7.32;;;6.63;;
20709;SDS011;10516;51.518;9.864;2023-06-26T04:33:15;10.77;;;7.88;;
20709;SDS011;10516;51.518;9.864;2023-06-26T04:35:41;8.05;;;7.25;;
20709;SDS011;10516;51.518;9.864;2023-06-26T04:38:09;7.43;;;6.70;;
20709;SDS011;10516;51.518;9.864;2023-06-26T04:40:35;6.93;;;6.22;;
20709;SDS011;10516;51.518;9.864;2023-06-26T04:43:00;10.18;;;8.60;;
20709;SDS011;10516;51.518;9.864;2023-06-26T04:45:26;14.52;;;7.15;;
20709;SDS011;10516;51.518;9.864;2023-06-26T04:47:51;10.23;;;6.95;;
20709;SDS011;10516;51.518;9.864;2023-06-26T04:50:16;8.75;;;7.18;;
20709;SDS011;10516;51.518;9.864;2023-06-26T04:52:44;11.68;;;7.05;;
20709;SDS011;10516;51.518;9.864;2023-06-26T04:55:09;8.63;;;7.53;;
20709;SDS011;10516;51.518;9.864;2023-06-26T04:57:34;10.13;;;6.50;;
20709;SDS011;10516;51.518;9.864;2023-06-26T05:00:01;8.90;;;7.05;;
20709;SDS011;10516;51.518;9.864;2023-06-26T05:02:27;8.52;;;7.72;;
20709;SDS011;10516;51.518;9.864;2023-06-26T05:04:54;9.68;;;7.15;;
20709;SDS011;10516;51.518;9.864;2023-06-26T05:07:19;7.65;;;6.70;;
20709;SDS011;10516;51.518;9.864;2023-06-26T05:09:45;10.32;;;6.97;;
20709;SDS011;10516;51.518;9.864;2023-06-26T05:12:10;9.05;;;7.82;;
20709;SDS011;10516;51.518;9.864;2023-06-26T05:14:37;12.45;;;7.05;;
20709;SDS011;10516;51.518;9.864;2023-06-26T05:17:02;10.93;;;7.57;;
20709;SDS011;10516;51.518;9.864;2023-06-26T05:19:31;7.65;;;6.85;;
20709;SDS011;10516;51.518;9.864;2023-06-26T05:21:57;11.50;;;8.15;;
20709;SDS011;10516;51.518;9.864;2023-06-26T05:24:24;8.70;;;7.90;;
20709;SDS011;10516;51.518;9.864;2023-06-26T05:26:51;8.43;;;7.50;;
20709;SDS011;10516;51.518;9.864;2023-06-26T05:29:16;10.55;;;8.10;;
20709;SDS011;10516;51.518;9.864;2023-06-26T05:31:42;12.05;;;8.90;;
20709;SDS011;10516;51.518;9.864;2023-06-26T05:34:10;9.27;;;7.57;;
20709;SDS011;10516;51.518;9.864;2023-06-26T05:36:41;9.45;;;7.80;;
20709;SDS011;10516;51.518;9.864;2023-06-26T05:39:09;10.38;;;8.10;;
20709;SDS011;10516;51.518;9.864;2023-06-26T05:41:35;8.25;;;7.45;;
20709;SDS011;10516;51.518;9.864;2023-06-26T05:44:01;10.45;;;7.75;;
20709;SDS011;10516;51.518;9.864;2023-06-26T05:46:26;10.32;;;8.13;;
20709;SDS011;10516;51.518;9.864;2023-06-26T05:48:51;11.10;;;8.63;;
20709;SDS011;10516;51.518;9.864;2023-06-26T05:51:17;10.75;;;8.57;;
20709;SDS011;10516;51.518;9.864;2023-06-26T05:53:42;8.75;;;7.38;;
20709;SDS011;10516;51.518;9.864;2023-06-26T05:56:08;10.57;;;8.55;;
20709;SDS011;10516;51.518;9.864;2023-06-26T05:58:35;9.60;;;7.60;;
20709;SDS011;10516;51.518;9.864;2023-06-26T06:01:00;9.02;;;8.02;;
20709;SDS011;10516;51.518;9.864;2023-06-26T06:03:26;9.30;;;7.68;;
20709;SDS011;10516;51.518;9.864;2023-06-26T06:05:51;9.57;;;6.97;;
20709;SDS011;10516;51.518;9.864;2023-06-26T06:08:16;12.48;;;7.35;;
20709;SDS011;10516;51.518;9.864;2023-06-26T06:10:42;9.55;;;8.45;;
20709;SDS011;10516;51.518;9.864;2023-06-26T06:13:07;9.38;;;7.10;;
20709;SDS011;10516;51.518;9.864;2023-06-26T06:15:33;9.32;;;7.40;;
20709;SDS011;10516;51.518;9.864;2023-06-26T06:17:58;8.38;;;7.55;;
20709;SDS011;10516;51.518;9.864;2023-06-26T06:20:24;10.00;;;8.02;;
20709;SDS011;10516;51.518;9.864;2023-06-26T06:22:50;11.50;;;8.25;;
20709;SDS011;10516;51.518;9.864;2023-06-26T06:25:15;10.30;;;7.65;;
20709;SDS011;10516;51.518;9.864;2023-06-26T06:27:41;10.43;;;7.03;;
20709;SDS011;10516;51.518;9.864;2023-06-26T06:30:07;8.73;;;7.78;;
20709;SDS011;10516;51.518;9.864;2023-06-26T06:32:33;10.23;;;7.85;;
20709;SDS011;10516;51.518;9.864;2023-06-26T06:34:59;12.48;;;7.90;;
20709;SDS011;10516;51.518;9.864;2023-06-26T06:37:24;10.95;;;8.70;;
20709;SDS011;10516;51.518;9.864;2023-06-26T06:39:49;13.60;;;7.88;;
20709;SDS011;10516;51.518;9.864;2023-06-26T06:42:15;9.88;;;7.47;;
20709;SDS011;10516;51.518;9.864;2023-06-26T06:44:40;12.68;;;9.30;;
20709;SDS011;10516;51.518;9.864;2023-06-26T06:47:06;8.38;;;7.57;;
20709;SDS011;10516;51.518;9.864;2023-06-26T06:49:31;11.32;;;7.70;;
20709;SDS011;10516;51.518;9.864;2023-06-26T06:51:56;14.20;;;7.38;;
20709;SDS011;10516;51.518;9.864;2023-06-26T06:54:25;10.57;;;8.60;;
20709;SDS011;10516;51.518;9.864;2023-06-26T06:56:51;9.50;;;7.93;;
20709;SDS011;10516;51.518;9.864;2023-06-26T06:59:16;12.63;;;7.75;;
20709;SDS011;10516;51.518;9.864;2023-06-26T07:01:42;8.73;;;7.68;;
20709;SDS011;10516;51.518;9.864;2023-06-26T07:04:07;9.23;;;7.47;;
20709;SDS011;10516;51.518;9.864;2023-06-26T07:06:32;11.00;;;7.82;;
20709;SDS011;10516;51.518;9.864;2023-06-26T07:08:59;8.98;;;7.65;;
20709;SDS011;10516;51.518;9.864;2023-06-26T07:11:24;11.77;;;7.75;;
20709;SDS011;10516;51.518;9.864;2023-06-26T07:13:50;9.23;;;7.55;;
20709;SDS011;10516;51.518;9.864;2023-06-26T07:16:15;10.40;;;7.72;;
20709;SDS011;10516;51.518;9.864;2023-06-26T07:18:40;9.18;;;7.65;;
20709;SDS011;10516;51.518;9.864;2023-06-26T07:21:06;10.38;;;8.43;;
20709;SDS011;10516;51.518;9.864;2023-06-26T07:23:32;10.45;;;7.22;;
20709;SDS011;10516;51.518;9.864;2023-06-26T07:25:57;10.20;;;7.80;;
20709;SDS011;10516;51.518;9.864;2023-06-26T07:28:23;9.68;;;8.35;;
20709;SDS011;10516;51.518;9.864;2023-06-26T07:30:48;9.50;;;8.38;;
20709;SDS011;10516;51.518;9.864;2023-06-26T07:33:14;14.80;;;9.30;;
20709;SDS011;10516;51.518;9.864;2023-06-26T07:35:39;10.18;;;9.18;;
20709;SDS011;10516;51.518;9.864;2023-06-26T07:38:05;8.60;;;7.80;;
20709;SDS011;10516;51.518;9.864;2023-06-26T07:40:30;12.77;;;8.50;;
20709;SDS011;10516;51.518;9.864;2023-06-26T07:42:55;16.38;;;8.85;;
20709;SDS011;10516;51.518;9.864;2023-06-26T07:45:23;9.05;;;8.15;;
20709;SDS011;10516;51.518;9.864;2023-06-26T07:47:48;9.75;;;8.75;;
20709;SDS011;10516;51.518;9.864;2023-06-26T07:50:13;9.82;;;8.02;;
20709;SDS011;10516;51.518;9.864;2023-06-26T07:52:44;8.52;;;7.63;;
20709;SDS011;10516;51.518;9.864;2023-06-26T07:55:10;9.45;;;8.38;;
20709;SDS011;10516;51.518;9.864;2023-06-26T07:57:35;10.38;;;8.20;;
20709;SDS011;10516;51.518;9.864;2023-06-26T08:00:01;11.98;;;8.68;;
20709;SDS011;10516;51.518;9.864;2023-06-26T08:02:26;8.07;;;7.28;;
20709;SDS011;10516;51.518;9.864;2023-06-26T08:04:51;9.60;;;7.25;;
20709;SDS011;10516;51.518;9.864;2023-06-26T08:07:17;12.98;;;7.72;;
20709;SDS011;10516;51.518;9.864;2023-06-26T08:09:44;11.13;;;8.52;;
20709;SDS011;10516;51.518;9.864;2023-06-26T08:12:09;10.88;;;7.95;;
20709;SDS011;10516;51.518;9.864;2023-06-26T08:14:35;8.13;;;6.97;;
20709;SDS011;10516;51.518;9.864;2023-06-26T08:17:00;8.00;;;7.22;;
20709;SDS011;10516;51.518;9.864;2023-06-26T08:19:26;7.95;;;7.25;;
20709;SDS011;10516;51.518;9.864;2023-06-26T08:21:51;8.02;;;7.30;;
20709;SDS011;10516;51.518;9.864;2023-06-26T08:24:16;8.45;;;7.63;;
20709;SDS011;10516;51.518;9.864;2023-06-26T08:26:44;10.02;;;7.72;;
20709;SDS011;10516;51.518;9.864;2023-06-26T08:29:10;11.00;;;7.60;;
20709;SDS011;10516;51.518;9.864;2023-06-26T08:31:35;8.32;;;7.53;;
20709;SDS011;10516;51.518;9.864;2023-06-26T08:34:02;10.05;;;7.63;;
20709;SDS011;10516;51.518;9.864;2023-06-26T08:36:28;7.85;;;7.15;;
20709;SDS011;10516;51.518;9.864;2023-06-26T08:38:53;36.47;;;10.43;;
20709;SDS011;10516;51.518;9.864;2023-06-26T08:41:19;12.13;;;7.80;;
20709;SDS011;10516;51.518;9.864;2023-06-26T08:43:44;8.90;;;7.78;;
20709;SDS011;10516;51.518;9.864;2023-06-26T08:46:10;10.27;;;7.50;;
20709;SDS011;10516;51.518;9.864;2023-06-26T08:48:35;8.43;;;7.60;;
20709;SDS011;10516;51.518;9.864;2023-06-26T08:51:05;8.30;;;7.45;;
20709;SDS011;10516;51.518;9.864;2023-06-26T08:53:49;7.68;;;6.97;;
20709;SDS011;10516;51.518;9.864;2023-06-26T08:56:21;7.50;;;6.80;;
20709;SDS011;10516;51.518;9.864;2023-06-26T08:58:47;8.10;;;7.45;;
20709;SDS011;10516;51.518;9.864;2023-06-26T09:01:13;8.68;;;7.40;;
20709;SDS011;10516;51.518;9.864;2023-06-26T09:03:39;11.10;;;7.85;;
20709;SDS011;10516;51.518;9.864;2023-06-26T09:06:06;10.90;;;8.93;;
20709;SDS011;10516;51.518;9.864;2023-06-26T09:08:32;8.13;;;7.32;;
20709;SDS011;10516;51.518;9.864;2023-06-26T09:10:57;8.48;;;7.57;;
20709;SDS011;10516;51.518;9.864;2023-06-26T09:13:22;9.43;;;7.95;;
20709;SDS011;10516;51.518;9.864;2023-06-26T09:15:48;9.95;;;7.80;;
20709;SDS011;10516;51.518;9.864;2023-06-26T09:18:18;11.13;;;7.95;;
20709;SDS011;10516;51.518;9.864;2023-06-26T09:20:46;10.00;;;8.70;;
20709;SDS011;10516;51.518;9.864;2023-06-26T09:23:13;9.02;;;7.78;;
20709;SDS011;10516;51.518;9.864;2023-06-26T09:25:39;7.68;;;6.88;;
20709;SDS011;10516;51.518;9.864;2023-06-26T09:28:05;9.73;;;8.73;;
20709;SDS011;10516;51.518;9.864;2023-06-26T09:30:34;7.90;;;7.20;;
20709;SDS011;10516;51.518;9.864;2023-06-26T09:33:35;8.63;;;7.63;;
20709;SDS011;10516;51.518;9.864;2023-06-26T09:35:52;9.65;;;7.78;;
20709;SDS011;10516;51.518;9.864;2023-06-26T09:38:18;9.63;;;8.73;;
20709;SDS011;10516;51.518;9.864;2023-06-26T09:40:43;8.77;;;7.72;;
20709;SDS011;10516;51.518;9.864;2023-06-26T09:43:09;8.10;;;7.38;;
20709;SDS011;10516;51.518;9.864;2023-06-26T09:45:39;10.13;;;7.97;;
20709;SDS011;10516;51.518;9.864;2023-06-26T09:48:05;8.77;;;7.55;;
20709;SDS011;10516;51.518;9.864;2023-06-26T09:50:33;9.05;;;8.15;;
20709;SDS011;10516;51.518;9.864;2023-06-26T09:53:08;8.32;;;7.30;;
20709;SDS011;10516;51.518;9.864;2023-06-26T09:55:35;8.73;;;7.82;;
20709;SDS011;10516;51.518;9.864;2023-06-26T09:58:06;10.07;;;7.03;;
20709;SDS011;10516;51.518;9.864;2023-06-26T10:00:31;12.88;;;9.15;;
20709;SDS011;10516;51.518;9.864;2023-06-26T10:02:58;9.60;;;8.70;;
20709;SDS011;10516;51.518;9.864;2023-06-26T10:05:24;9.90;;;8.10;;
20709;SDS011;10516;51.518;9.864;2023-06-26T10:07:49;9.70;;;7.97;;
20709;SDS011;10516;51.518;9.864;2023-06-26T10:10:16;11.23;;;8.98;;
20709;SDS011;10516;51.518;9.864;2023-06-26T10:12:42;9.57;;;8.57;;
20709;SDS011;10516;51.518;9.864;2023-06-26T10:15:12;10.00;;;9.00;;
20709;SDS011;10516;51.518;9.864;2023-06-26T10:17:41;11.00;;;7.93;;
20709;SDS011;10516;51.518;9.864;2023-06-26T10:20:08;10.13;;;8.95;;
20709;SDS011;10516;51.518;9.864;2023-06-26T10:22:41;10.57;;;8.95;;
20709;SDS011;10516;51.518;9.864;2023-06-26T10:25:09;11.32;;;8.40;;
20709;SDS011;10516;51.518;9.864;2023-06-26T10:27:38;10.55;;;7.70;;
20709;SDS011;10516;51.518;9.864;2023-06-26T10:30:09;9.88;;;8.18;;
20709;SDS011;10516;51.518;9.864;2023-06-26T10:32:45;9.02;;;7.60;;
20709;SDS011;10516;51.518;9.864;2023-06-26T10:35:11;14.02;;;8.80;;
20709;SDS011;10516;51.518;9.864;2023-06-26T10:37:42;10.18;;;8.27;;
20709;SDS011;10516;51.518;9.864;2023-06-26T10:40:09;7.93;;;7.13;;
20709;SDS011;10516;51.518;9.864;2023-06-26T10:42:35;10.05;;;8.80;;
20709;SDS011;10516;51.518;9.864;2023-06-26T10:45:14;12.43;;;8.65;;
20709;SDS011;10516;51.518;9.864;2023-06-26T10:47:41;12.02;;;8.25;;
20709;SDS011;10516;51.518;9.864;2023-06-26T10:50:17;8.68;;;7.45;;
20709;SDS011;10516;51.518;9.864;2023-06-26T10:52:45;13.77;;;8.77;;
20709;SDS011;10516;51.518;9.864;2023-06-26T10:55:10;11.18;;;7.68;;
20709;SDS011;10516;51.518;9.864;2023-06-26T10:57:36;12.57;;;8.63;;
20709;SDS011;10516;51.518;9.864;2023-06-26T11:00:09;10.50;;;7.50;;
20709;SDS011;10516;51.518;9.864;2023-06-26T11:02:50;9.85;;;7.80;;
20709;SDS011;10516;51.518;9.864;2023-06-26T11:10:48;10.00;;;7.93;;
20709;SDS011;10516;51.518;9.864;2023-06-26T11:13:18;9.40;;;7.57;;
20709;SDS011;10516;51.518;9.864;2023-06-26T11:15:45;13.55;;;8.05;;
20709;SDS011;10516;51.518;9.864;2023-06-26T11:18:11;14.40;;;9.07;;
20709;SDS011;10516;51.518;9.864;2023-06-26T11:20:37;18.10;;;9.57;;
20709;SDS011;10516;51.518;9.864;2023-06-26T11:23:03;14.70;;;8.85;;
20709;SDS011;10516;51.518;9.864;2023-06-26T11:25:36;23.00;;;11.23;;
20709;SDS011;10516;51.518;9.864;2023-06-26T11:28:02;24.63;;;15.30;;
20709;SDS011;10516;51.518;9.864;2023-06-26T11:30:30;17.58;;;14.13;;
20709;SDS011;10516;51.518;9.864;2023-06-26T11:33:07;21.77;;;13.25;;
20709;SDS011;10516;51.518;9.864;2023-06-26T11:35:34;27.23;;;18.30;;
20709;SDS011;10516;51.518;9.864;2023-06-26T11:38:00;24.00;;;16.08;;
20709;SDS011;10516;51.518;9.864;2023-06-26T11:40:29;21.33;;;14.75;;
20709;SDS011;10516;51.518;9.864;2023-06-26T11:42:58;19.55;;;13.27;;
20709;SDS011;10516;51.518;9.864;2023-06-26T11:45:28;19.92;;;12.55;;
20709;SDS011;10516;51.518;9.864;2023-06-26T11:47:55;22.42;;;15.93;;
20709;SDS011;10516;51.518;9.864;2023-06-26T11:50:22;20.05;;;17.00;;
20709;SDS011;10516;51.518;9.864;2023-06-26T11:52:55;15.88;;;12.05;;
20709;SDS011;10516;51.518;9.864;2023-06-26T11:55:22;20.90;;;13.93;;
20709;SDS011;10516;51.518;9.864;2023-06-26T11:57:55;21.08;;;15.10;;
20709;SDS011;10516;51.518;9.864;2023-06-26T12:00:22;21.60;;;19.33;;
20709;SDS011;10516;51.518;9.864;2023-06-26T12:02:48;23.33;;;20.48;;
20709;SDS011;10516;51.518;9.864;2023-06-26T12:05:15;21.65;;;17.40;;
20709;SDS011;10516;51.518;9.864;2023-06-26T12:07:45;21.17;;;18.92;;
20709;SDS011;10516;51.518;9.864;2023-06-26T12:10:12;20.08;;;17.00;;
20709;SDS011;10516;51.518;9.864;2023-06-26T12:12:39;20.92;;;17.30;;
20709;SDS011;10516;51.518;9.864;2023-06-26T12:15:05;21.38;;;15.35;;
20709;SDS011;10516;51.518;9.864;2023-06-26T12:17:32;19.13;;;17.15;;
20709;SDS011;10516;51.518;9.864;2023-06-26T12:19:58;18.30;;;16.45;;
20709;SDS011;10516;51.518;9.864;2023-06-26T12:22:23;15.52;;;14.02;;
20709;SDS011;10516;51.518;9.864;2023-06-26T12:24:49;15.73;;;14.05;;
20709;SDS011;10516;51.518;9.864;2023-06-26T12:27:16;15.43;;;13.93;;
20709;SDS011;10516;51.518;9.864;2023-06-26T12:29:49;14.73;;;13.20;;
20709;SDS011;10516;51.518;9.864;2023-06-26T12:32:17;15.32;;;13.70;;
20709;SDS011;10516;51.518;9.864;2023-06-26T12:34:46;16.15;;;12.00;;
20709;SDS011;10516;51.518;9.864;2023-06-26T12:37:14;16.17;;;12.07;;
20709;SDS011;10516;51.518;9.864;2023-06-26T12:39:47;14.23;;;11.35;;
20709;SDS011;10516;51.518;9.864;2023-06-26T12:42:21;12.07;;;10.32;;
20709;SDS011;10516;51.518;9.864;2023-06-26T12:44:49;11.68;;;9.65;;
20709;SDS011;10516;51.518;9.864;2023-06-26T12:47:19;11.25;;;9.60;;
20709;SDS011;10516;51.518;9.864;2023-06-26T12:49:51;14.85;;;10.73;;
20709;SDS011;10516;51.518;9.864;2023-06-26T12:52:18;13.25;;;10.23;;
20709;SDS011;10516;51.518;9.864;2023-06-26T12:54:44;9.23;;;8.32;;
20709;SDS011;10516;51.518;9.864;2023-06-26T12:57:12;13.43;;;9.77;;
20709;SDS011;10516;51.518;9.864;2023-06-26T12:59:41;16.48;;;9.70;;
20709;SDS011;10516;51.518;9.864;2023-06-26T13:02:07;24.65;;;12.23;;
20709;SDS011;10516;51.518;9.864;2023-06-26T13:04:33;10.05;;;9.02;;
20709;SDS011;10516;51.518;9.864;2023-06-26T13:06:59;18.02;;;9.90;;
20709;SDS011;10516;51.518;9.864;2023-06-26T13:09:25;10.85;;;9.75;;
20709;SDS011;10516;51.518;9.864;2023-06-26T13:11:51;14.13;;;9.50;;
20709;SDS011;10516;51.518;9.864;2023-06-26T13:14:17;12.73;;;9.93;;
20709;SDS011;10516;51.518;9.864;2023-06-26T13:16:43;11.68;;;9.18;;
20709;SDS011;10516;51.518;9.864;2023-06-26T13:19:08;16.35;;;10.23;;
20709;SDS011;10516;51.518;9.864;2023-06-26T13:21:34;12.98;;;9.98;;
20709;SDS011;10516;51.518;9.864;2023-06-26T13:24:00;10.18;;;9.10;;
20709;SDS011;10516;51.518;9.864;2023-06-26T13:26:26;19.98;;;8.65;;
20709;SDS011;10516;51.518;9.864;2023-06-26T13:28:53;11.70;;;8.93;;
20709;SDS011;10516;51.518;9.864;2023-06-26T13:31:19;9.93;;;8.90;;
20709;SDS011;10516;51.518;9.864;2023-06-26T13:33:44;10.60;;;8.40;;
20709;SDS011;10516;51.518;9.864;2023-06-26T13:36:13;12.13;;;8.88;;
20709;SDS011;10516;51.518;9.864;2023-06-26T13:38:39;14.93;;;9.75;;
20709;SDS011;10516;51.518;9.864;2023-06-26T13:41:04;13.05;;;8.70;;
20709;SDS011;10516;51.518;9.864;2023-06-26T13:43:30;11.88;;;8.23;;
20709;SDS011;10516;51.518;9.864;2023-06-26T13:45:55;10.98;;;9.20;;
20709;SDS011;10516;51.518;9.864;2023-06-26T13:48:21;12.40;;;9.07;;
20709;SDS011;10516;51.518;9.864;2023-06-26T13:50:49;13.40;;;8.40;;
20709;SDS011;10516;51.518;9.864;2023-06-26T13:53:14;12.77;;;8.38;;
20709;SDS011;10516;51.518;9.864;2023-06-26T13:55:40;11.23;;;9.27;;
20709;SDS011;10516;51.518;9.864;2023-06-26T13:58:09;12.52;;;8.32;;
20709;SDS011;10516;51.518;9.864;2023-06-26T14:00:36;11.10;;;8.70;;
20709;SDS011;10516;51.518;9.864;2023-06-26T14:03:05;11.82;;;7.43;;
20709;SDS011;10516;51.518;9.864;2023-06-26T14:05:34;10.00;;;7.28;;
20709;SDS011;10516;51.518;9.864;2023-06-26T14:08:04;13.15;;;8.05;;
20709;SDS011;10516;51.518;9.864;2023-06-26T14:10:32;10.82;;;7.13;;
20709;SDS011;10516;51.518;9.864;2023-06-26T14:12:58;8.35;;;6.25;;
20709;SDS011;10516;51.518;9.864;2023-06-26T14:15:24;9.98;;;7.00;;
20709;SDS011;10516;51.518;9.864;2023-06-26T14:17:50;10.38;;;7.15;;
20709;SDS011;10516;51.518;9.864;2023-06-26T14:20:16;9.48;;;6.47;;
20709;SDS011;10516;51.518;9.864;2023-06-26T14:22:42;13.93;;;7.22;;
20709;SDS011;10516;51.518;9.864;2023-06-26T14:25:12;7.32;;;6.05;;
20709;SDS011;10516;51.518;9.864;2023-06-26T14:27:38;11.95;;;6.55;;
20709;SDS011;10516;51.518;9.864;2023-06-26T14:30:04;9.77;;;6.55;;
20709;SDS011;10516;51.518;9.864;2023-06-26T14:32:30;8.32;;;6.20;;
20709;SDS011;10516;51.518;9.864;2023-06-26T14:34:56;10.02;;;6.40;;
20709;SDS011;10516;51.518;9.864;2023-06-26T14:37:22;8.38;;;4.95;;
20709;SDS011;10516;51.518;9.864;2023-06-26T14:39:48;7.95;;;5.82;;
20709;SDS011;10516;51.518;9.864;2023-06-26T14:42:14;7.80;;;5.43;;
20709;SDS011;10516;51.518;9.864;2023-06-26T14:44:39;10.70;;;5.30;;
20709;SDS011;10516;51.518;9.864;2023-06-26T14:47:05;9.45;;;5.15;;
20709;SDS011;10516;51.518;9.864;2023-06-26T14:49:30;12.35;;;6.05;;